Terminal Aerodrome Forecast
Issued by NWS Cleveland, OH

Home | Current Version | Previous Version | Graphics & Text | Print | Product List | Glossary Off
Versions: 1 2 3 4 5 6 7 8 9 10 11 12 13 14 15 16 17

871
FTUS41 KCLE 292014 AAA
TAFERI
TAF AMD
KERI 292014Z 2920/3018 03010G18KT P6SM SCT080 OVC150
     FM300000 05008KT P6SM BKN150
     FM300400 07009KT P6SM BKN070 BKN100
     FM301100 10007KT P6SM OVC045=

USA.gov is the U.S. government's official web portal to all federal, state and local government web resources and services.